LROP/OTP METAR and TAF weather

Enter ICAO airport designator
Station Type Date Time Source
LROP METAR 2019/10/14 06:30 UTC NOAA

LROP 140630Z 35003KT CAVOK 13/10 Q1023 NOSIG


Station Type Date Time Source
LROP Decoded METAR 2019/10/14 06:30 UTC NOAA

Bucuresti Otopeni, Romania (LROP) 44-33N 026-06E 95M
Oct 14, 2019 - 02:30 AM EDT / 2019.10.14 0630 UTC
Wind: from the N (350 degrees) at 3 MPH (3 KT):0
Visibility: greater than 7 mile(s):0
Temperature: 55 F (13 C)
Dew Point: 50 F (10 C)
Relative Humidity: 81%
Pressure (altimeter): 30.21 in. Hg (1023 hPa)
ob: LROP 140630Z 35003KT CAVOK 13/10 Q1023 NOSIG
cycle: 6

Station Type Date Time Source
LROP TAF 2019/10/14 06:33 UTC NOAA

TAF LROP 140500Z 1406/1506 VRB04KT CAVOK
BECMG 1422/1424 5000 BR
TEMPO 1501/1505 1500 BR BKN005 PROB30
TEMPO 1502/1505 0600 FG OVC002

Example: see airport list